<?xml version="1.0" encoding="UTF-8" standalone="no" ?>
<gpx xmlns="http://www.topografix.com/GPX/1/1" xmlns:xsi="http://www.w3.org/2001/XMLSchema-instance" xsi:schemaLocation="http://www.topografix.com/GPX/1/1 http://www.topografix.com/GPX/1/1/gpx.xsd" version="1.1" creator="VisuGPX - https://www.visugpx.com">
  <metadata>
    <name>Turquie_100points</name>
  </metadata>
  <trk>
    <name><![CDATA[Tour d'Europe: étape 530]]></name>
    <extensions>
      <line xmlns="http://www.topografix.com/GPX/gpx_style/0/2">
        <color>000088</color>
        <width>4</width>
      </line>
    </extensions>
    <trkseg>
      <trkpt lat="39.91089" lon="41.27029">
        <ele>1932.176681</ele>
        <time>2021-12-10T06:24:19.514Z</time>
      </trkpt>
      <trkpt lat="39.91056" lon="41.27154">
        <ele>1931.586171</ele>
        <time>2021-12-10T06:25:22.516Z</time>
      </trkpt>
      <trkpt lat="39.91006" lon="41.27343">
        <ele>1934.681557</ele>
        <time>2021-12-10T06:26:44.574Z</time>
      </trkpt>
      <trkpt lat="39.90815" lon="41.27318">
        <ele>1945.627538</ele>
        <time>2021-12-10T06:28:50.551Z</time>
      </trkpt>
      <trkpt lat="39.90608" lon="41.27356">
        <ele>1948.10746</ele>
        <time>2021-12-10T06:30:44.499Z</time>
      </trkpt>
      <trkpt lat="39.90591" lon="41.27083">
        <ele>1949.328479</ele>
        <time>2021-12-10T06:31:30.518Z</time>
      </trkpt>
      <trkpt lat="39.90563" lon="41.26721">
        <ele>1941.628662</ele>
        <time>2021-12-10T06:32:12.540Z</time>
      </trkpt>
      <trkpt lat="39.90551" lon="41.26456">
        <ele>1926.331267</ele>
        <time>2021-12-10T06:33:12.316Z</time>
      </trkpt>
      <trkpt lat="39.90527" lon="41.26148">
        <ele>1919.194061</ele>
        <time>2021-12-10T06:33:55.343Z</time>
      </trkpt>
      <trkpt lat="39.90512" lon="41.25854">
        <ele>1907.931234</ele>
        <time>2021-12-10T06:34:41.329Z</time>
      </trkpt>
      <trkpt lat="39.90493" lon="41.25574">
        <ele>1902.443092</ele>
        <time>2021-12-10T06:35:56.311Z</time>
      </trkpt>
      <trkpt lat="39.904" lon="41.25283">
        <ele>1901.76621</ele>
        <time>2021-12-10T06:36:57.324Z</time>
      </trkpt>
      <trkpt lat="39.9032" lon="41.25039">
        <ele>1902.91515</ele>
        <time>2021-12-10T06:38:01.335Z</time>
      </trkpt>
      <trkpt lat="39.90128" lon="41.24912">
        <ele>1902.588349</ele>
        <time>2021-12-10T06:39:08.322Z</time>
      </trkpt>
      <trkpt lat="39.89936" lon="41.24835">
        <ele>1909.72234</ele>
        <time>2021-12-10T06:40:33.334Z</time>
      </trkpt>
      <trkpt lat="39.8974" lon="41.24747">
        <ele>1918.837342</ele>
        <time>2021-12-10T06:42:05.314Z</time>
      </trkpt>
      <trkpt lat="39.89557" lon="41.2465">
        <ele>1923.157568</ele>
        <time>2021-12-10T06:43:37.323Z</time>
      </trkpt>
      <trkpt lat="39.89546" lon="41.24354">
        <ele>1919.717671</ele>
        <time>2021-12-10T06:44:38.311Z</time>
      </trkpt>
      <trkpt lat="39.89472" lon="41.24056">
        <ele>1916.420194</ele>
        <time>2021-12-10T06:45:43.329Z</time>
      </trkpt>
      <trkpt lat="39.89315" lon="41.24048">
        <ele>1920.391353</ele>
        <time>2021-12-10T06:46:46.345Z</time>
      </trkpt>
      <trkpt lat="39.89274" lon="41.24055">
        <ele>1921.079839</ele>
        <time>2021-12-10T06:50:33.342Z</time>
      </trkpt>
      <trkpt lat="39.89393" lon="41.24137">
        <ele>1918.170216</ele>
        <time>2021-12-10T06:51:31.327Z</time>
      </trkpt>
      <trkpt lat="39.89246" lon="41.24329">
        <ele>1928.440851</ele>
        <time>2021-12-10T06:53:04.338Z</time>
      </trkpt>
      <trkpt lat="39.89254" lon="41.24594">
        <ele>1935.815524</ele>
        <time>2021-12-10T06:54:44.333Z</time>
      </trkpt>
      <trkpt lat="39.89205" lon="41.24437">
        <ele>1936.660253</ele>
        <time>2021-12-10T06:57:32.329Z</time>
      </trkpt>
      <trkpt lat="39.89076" lon="41.24192">
        <ele>1937.607852</ele>
        <time>2021-12-10T06:58:26.375Z</time>
      </trkpt>
      <trkpt lat="39.88868" lon="41.24044">
        <ele>1942.012061</ele>
        <time>2021-12-10T06:59:29.333Z</time>
      </trkpt>
      <trkpt lat="39.88684" lon="41.23897">
        <ele>1952.086355</ele>
        <time>2021-12-10T07:00:29.327Z</time>
      </trkpt>
      <trkpt lat="39.8852" lon="41.23647">
        <ele>1959.198025</ele>
        <time>2021-12-10T07:01:55.336Z</time>
      </trkpt>
      <trkpt lat="39.88383" lon="41.23437">
        <ele>1953.290647</ele>
        <time>2021-12-10T07:03:19.346Z</time>
      </trkpt>
      <trkpt lat="39.88233" lon="41.23218">
        <ele>1953.447563</ele>
        <time>2021-12-10T07:04:39.315Z</time>
      </trkpt>
      <trkpt lat="39.88084" lon="41.23002">
        <ele>1957.506517</ele>
        <time>2021-12-10T07:06:09.348Z</time>
      </trkpt>
      <trkpt lat="39.87945" lon="41.22802">
        <ele>1960.401184</ele>
        <time>2021-12-10T07:07:21.339Z</time>
      </trkpt>
      <trkpt lat="39.87801" lon="41.22593">
        <ele>1960.457921</ele>
        <time>2021-12-10T07:08:27.365Z</time>
      </trkpt>
      <trkpt lat="39.87652" lon="41.22389">
        <ele>1959.615876</ele>
        <time>2021-12-10T07:09:27.337Z</time>
      </trkpt>
      <trkpt lat="39.87483" lon="41.22185">
        <ele>1958.991803</ele>
        <time>2021-12-10T07:10:30.358Z</time>
      </trkpt>
      <trkpt lat="39.87302" lon="41.21982">
        <ele>1957.049301</ele>
        <time>2021-12-10T07:11:26.361Z</time>
      </trkpt>
      <trkpt lat="39.87102" lon="41.21772">
        <ele>1955.629823</ele>
        <time>2021-12-10T07:12:24.349Z</time>
      </trkpt>
      <trkpt lat="39.86912" lon="41.21611">
        <ele>1952.189613</ele>
        <time>2021-12-10T07:13:15.353Z</time>
      </trkpt>
      <trkpt lat="39.86721" lon="41.21453">
        <ele>1949.042028</ele>
        <time>2021-12-10T07:14:09.342Z</time>
      </trkpt>
      <trkpt lat="39.86551" lon="41.21201">
        <ele>1944.066928</ele>
        <time>2021-12-10T07:15:03.350Z</time>
      </trkpt>
      <trkpt lat="39.86383" lon="41.20866">
        <ele>1931.636833</ele>
        <time>2021-12-10T07:15:43.357Z</time>
      </trkpt>
      <trkpt lat="39.8622" lon="41.20543">
        <ele>1919.598122</ele>
        <time>2021-12-10T07:16:18.354Z</time>
      </trkpt>
      <trkpt lat="39.86105" lon="41.20283">
        <ele>1911.875514</ele>
        <time>2021-12-10T07:21:20.340Z</time>
      </trkpt>
      <trkpt lat="39.86037" lon="41.19984">
        <ele>1909.281185</ele>
        <time>2021-12-10T07:22:12.329Z</time>
      </trkpt>
      <trkpt lat="39.8597" lon="41.19694">
        <ele>1910.909231</ele>
        <time>2021-12-10T07:23:12.337Z</time>
      </trkpt>
      <trkpt lat="39.85864" lon="41.19429">
        <ele>1910.128935</ele>
        <time>2021-12-10T07:24:03.333Z</time>
      </trkpt>
      <trkpt lat="39.85756" lon="41.19206">
        <ele>1906.993128</ele>
        <time>2021-12-10T07:24:43.363Z</time>
      </trkpt>
      <trkpt lat="39.85632" lon="41.18961">
        <ele>1902.615048</ele>
        <time>2021-12-10T07:25:31.348Z</time>
      </trkpt>
      <trkpt lat="39.85454" lon="41.18685">
        <ele>1891.501471</ele>
        <time>2021-12-10T07:26:10.354Z</time>
      </trkpt>
      <trkpt lat="39.85272" lon="41.1844">
        <ele>1883.731701</ele>
        <time>2021-12-10T07:26:39.333Z</time>
      </trkpt>
      <trkpt lat="39.85083" lon="41.18187">
        <ele>1883.935556</ele>
        <time>2021-12-10T07:27:28.352Z</time>
      </trkpt>
      <trkpt lat="39.84938" lon="41.17993">
        <ele>1889.007556</ele>
        <time>2021-12-10T07:28:37.350Z</time>
      </trkpt>
      <trkpt lat="39.84777" lon="41.17776">
        <ele>1892.846974</ele>
        <time>2021-12-10T07:29:56.324Z</time>
      </trkpt>
      <trkpt lat="39.8463" lon="41.17577">
        <ele>1894.292038</ele>
        <time>2021-12-10T07:30:57.364Z</time>
      </trkpt>
      <trkpt lat="39.84452" lon="41.17336">
        <ele>1895.605696</ele>
        <time>2021-12-10T07:32:00.358Z</time>
      </trkpt>
      <trkpt lat="39.84303" lon="41.17134">
        <ele>1901.060379</ele>
        <time>2021-12-10T07:33:01.331Z</time>
      </trkpt>
      <trkpt lat="39.84148" lon="41.1693">
        <ele>1904.343916</ele>
        <time>2021-12-10T07:34:24.344Z</time>
      </trkpt>
      <trkpt lat="39.83976" lon="41.16752">
        <ele>1904.94891</ele>
        <time>2021-12-10T07:35:43.348Z</time>
      </trkpt>
      <trkpt lat="39.83781" lon="41.16601">
        <ele>1908.117839</ele>
        <time>2021-12-10T07:37:07.346Z</time>
      </trkpt>
      <trkpt lat="39.83609" lon="41.1647">
        <ele>1916.206437</ele>
        <time>2021-12-10T07:38:41.342Z</time>
      </trkpt>
      <trkpt lat="39.83431" lon="41.16336">
        <ele>1927.52629</ele>
        <time>2021-12-10T07:40:41.373Z</time>
      </trkpt>
      <trkpt lat="39.83252" lon="41.16207">
        <ele>1936.225583</ele>
        <time>2021-12-10T07:42:47.352Z</time>
      </trkpt>
      <trkpt lat="39.8306" lon="41.16126">
        <ele>1942.510257</ele>
        <time>2021-12-10T07:44:34.355Z</time>
      </trkpt>
      <trkpt lat="39.82851" lon="41.16052">
        <ele>1948.979009</ele>
        <time>2021-12-10T07:46:12.359Z</time>
      </trkpt>
      <trkpt lat="39.82662" lon="41.15943">
        <ele>1954.361149</ele>
        <time>2021-12-10T07:47:44.353Z</time>
      </trkpt>
      <trkpt lat="39.82496" lon="41.15785">
        <ele>1957.428046</ele>
        <time>2021-12-10T07:49:08.361Z</time>
      </trkpt>
      <trkpt lat="39.82354" lon="41.15579">
        <ele>1962.171605</ele>
        <time>2021-12-10T07:50:22.368Z</time>
      </trkpt>
      <trkpt lat="39.82222" lon="41.15343">
        <ele>1961.722883</ele>
        <time>2021-12-10T07:51:26.363Z</time>
      </trkpt>
      <trkpt lat="39.82094" lon="41.15117">
        <ele>1955.868149</ele>
        <time>2021-12-10T07:52:14.348Z</time>
      </trkpt>
      <trkpt lat="39.81972" lon="41.14897">
        <ele>1953.503146</ele>
        <time>2021-12-10T07:52:56.346Z</time>
      </trkpt>
      <trkpt lat="39.8189" lon="41.14647">
        <ele>1948.898836</ele>
        <time>2021-12-10T07:53:36.333Z</time>
      </trkpt>
      <trkpt lat="39.81847" lon="41.1436">
        <ele>1946.498281</ele>
        <time>2021-12-10T07:54:18.363Z</time>
      </trkpt>
      <trkpt lat="39.81868" lon="41.14059">
        <ele>1941.613985</ele>
        <time>2021-12-10T07:55:00.359Z</time>
      </trkpt>
      <trkpt lat="39.81882" lon="41.13783">
        <ele>1938.498358</ele>
        <time>2021-12-10T07:55:40.365Z</time>
      </trkpt>
      <trkpt lat="39.81823" lon="41.13402">
        <ele>1932.49722</ele>
        <time>2021-12-10T07:56:22.357Z</time>
      </trkpt>
      <trkpt lat="39.81726" lon="41.13154">
        <ele>1925.508179</ele>
        <time>2021-12-10T07:56:45.350Z</time>
      </trkpt>
      <trkpt lat="39.81613" lon="41.12905">
        <ele>1916.302282</ele>
        <time>2021-12-10T07:57:06.366Z</time>
      </trkpt>
      <trkpt lat="39.81506" lon="41.12671">
        <ele>1909.112758</ele>
        <time>2021-12-10T07:57:26.348Z</time>
      </trkpt>
      <trkpt lat="39.81383" lon="41.12405">
        <ele>1904.993897</ele>
        <time>2021-12-10T07:57:52.331Z</time>
      </trkpt>
      <trkpt lat="39.8126" lon="41.12132">
        <ele>1901.64013</ele>
        <time>2021-12-10T07:58:34.345Z</time>
      </trkpt>
      <trkpt lat="39.81132" lon="41.11891">
        <ele>1904.999145</ele>
        <time>2021-12-10T07:59:37.361Z</time>
      </trkpt>
      <trkpt lat="39.80961" lon="41.11757">
        <ele>1909.560434</ele>
        <time>2021-12-10T08:00:42.369Z</time>
      </trkpt>
      <trkpt lat="39.80751" lon="41.11717">
        <ele>1911.548721</ele>
        <time>2021-12-10T08:01:57.351Z</time>
      </trkpt>
      <trkpt lat="39.80548" lon="41.11789">
        <ele>1916.876072</ele>
        <time>2021-12-10T08:03:47.338Z</time>
      </trkpt>
      <trkpt lat="39.80356" lon="41.11837">
        <ele>1928.717871</ele>
        <time>2021-12-10T08:05:52.355Z</time>
      </trkpt>
      <trkpt lat="39.80154" lon="41.11809">
        <ele>1944.901363</ele>
        <time>2021-12-10T08:08:12.381Z</time>
      </trkpt>
      <trkpt lat="39.79981" lon="41.11706">
        <ele>1963.74669</ele>
        <time>2021-12-10T08:10:27.352Z</time>
      </trkpt>
      <trkpt lat="39.79833" lon="41.11525">
        <ele>1981.829328</ele>
        <time>2021-12-10T08:12:52.363Z</time>
      </trkpt>
      <trkpt lat="39.79721" lon="41.11318">
        <ele>1992.175108</ele>
        <time>2021-12-10T08:14:56.354Z</time>
      </trkpt>
      <trkpt lat="39.7964" lon="41.11074">
        <ele>1999.969153</ele>
        <time>2021-12-10T08:16:45.352Z</time>
      </trkpt>
      <trkpt lat="39.79611" lon="41.10822">
        <ele>2002.045394</ele>
        <time>2021-12-10T08:18:31.361Z</time>
      </trkpt>
      <trkpt lat="39.79583" lon="41.10559">
        <ele>2007.685126</ele>
        <time>2021-12-10T08:20:23.348Z</time>
      </trkpt>
      <trkpt lat="39.79548" lon="41.10309">
        <ele>2012.38074</ele>
        <time>2021-12-10T08:22:05.357Z</time>
      </trkpt>
      <trkpt lat="39.79468" lon="41.10047">
        <ele>2017.062732</ele>
        <time>2021-12-10T08:23:35.347Z</time>
      </trkpt>
      <trkpt lat="39.79372" lon="41.09781">
        <ele>2021.126469</ele>
        <time>2021-12-10T08:24:52.370Z</time>
      </trkpt>
      <trkpt lat="39.79291" lon="41.0953">
        <ele>2023.093126</ele>
        <time>2021-12-10T08:25:52.363Z</time>
      </trkpt>
      <trkpt lat="39.79204" lon="41.09255">
        <ele>2026.671691</ele>
        <time>2021-12-10T08:35:33.394Z</time>
      </trkpt>
      <trkpt lat="39.79084" lon="41.09034">
        <ele>2030.865182</ele>
        <time>2021-12-10T08:36:48.358Z</time>
      </trkpt>
      <trkpt lat="39.78958" lon="41.08785">
        <ele>2032.188831</ele>
        <time>2021-12-10T08:37:51.347Z</time>
      </trkpt>
      <trkpt lat="39.78863" lon="41.08539">
        <ele>2031.480953</ele>
        <time>2021-12-10T08:38:51.344Z</time>
      </trkpt>
      <trkpt lat="39.78694" lon="41.08348">
        <ele>2030.079075</ele>
        <time>2021-12-10T08:39:54.342Z</time>
      </trkpt>
      <trkpt lat="39.78496" lon="41.08279">
        <ele>2035.652784</ele>
        <time>2021-12-10T08:41:14.376Z</time>
      </trkpt>
      <trkpt lat="39.78296" lon="41.08215">
        <ele>2047.118912</ele>
        <time>2021-12-10T08:43:28.357Z</time>
      </trkpt>
      <trkpt lat="39.78109" lon="41.08156">
        <ele>2059.821813</ele>
        <time>2021-12-10T08:45:47.360Z</time>
      </trkpt>
      <trkpt lat="39.77918" lon="41.08067">
        <ele>2074.820347</ele>
        <time>2021-12-10T08:48:25.362Z</time>
      </trkpt>
      <trkpt lat="39.77774" lon="41.07884">
        <ele>2087.350207</ele>
        <time>2021-12-10T08:50:59.382Z</time>
      </trkpt>
      <trkpt lat="39.77645" lon="41.07668">
        <ele>2090.109335</ele>
        <time>2021-12-10T08:52:31.364Z</time>
      </trkpt>
      <trkpt lat="39.77484" lon="41.07394">
        <ele>2084.166728</ele>
        <time>2021-12-10T08:53:13.370Z</time>
      </trkpt>
      <trkpt lat="39.77354" lon="41.07176">
        <ele>2081.835409</ele>
        <time>2021-12-10T08:54:09.420Z</time>
      </trkpt>
      <trkpt lat="39.77231" lon="41.06965">
        <ele>2082.41442</ele>
        <time>2021-12-10T08:55:12.393Z</time>
      </trkpt>
      <trkpt lat="39.77103" lon="41.06755">
        <ele>2089.67678</ele>
        <time>2021-12-10T08:56:25.378Z</time>
      </trkpt>
      <trkpt lat="39.77022" lon="41.0651">
        <ele>2096.910064</ele>
        <time>2021-12-10T08:58:09.404Z</time>
      </trkpt>
      <trkpt lat="39.77018" lon="41.06254">
        <ele>2101.672742</ele>
        <time>2021-12-10T08:59:51.378Z</time>
      </trkpt>
      <trkpt lat="39.77017" lon="41.05983">
        <ele>2110.85354</ele>
        <time>2021-12-10T09:01:36.381Z</time>
      </trkpt>
      <trkpt lat="39.7701" lon="41.05721">
        <ele>2116.352098</ele>
        <time>2021-12-10T09:03:15.375Z</time>
      </trkpt>
      <trkpt lat="39.76979" lon="41.0543">
        <ele>2114.766665</ele>
        <time>2021-12-10T09:04:20.382Z</time>
      </trkpt>
      <trkpt lat="39.7693" lon="41.05141">
        <ele>2107.069242</ele>
        <time>2021-12-10T09:05:23.373Z</time>
      </trkpt>
      <trkpt lat="39.76875" lon="41.04867">
        <ele>2104.320376</ele>
        <time>2021-12-10T09:06:23.380Z</time>
      </trkpt>
      <trkpt lat="39.76822" lon="41.04593">
        <ele>2108.948505</ele>
        <time>2021-12-10T09:07:27.360Z</time>
      </trkpt>
      <trkpt lat="39.76816" lon="41.04332">
        <ele>2121.624402</ele>
        <time>2021-12-10T09:09:03.374Z</time>
      </trkpt>
      <trkpt lat="39.76853" lon="41.04071">
        <ele>2133.212718</ele>
        <time>2021-12-10T09:11:03.341Z</time>
      </trkpt>
      <trkpt lat="39.76839" lon="41.03821">
        <ele>2146.079921</ele>
        <time>2021-12-10T09:12:59.353Z</time>
      </trkpt>
      <trkpt lat="39.76754" lon="41.03572">
        <ele>2155.109708</ele>
        <time>2021-12-10T09:15:06.385Z</time>
      </trkpt>
      <trkpt lat="39.76666" lon="41.03347">
        <ele>2161.0701</ele>
        <time>2021-12-10T09:17:15.369Z</time>
      </trkpt>
      <trkpt lat="39.76568" lon="41.03107">
        <ele>2173.202417</ele>
        <time>2021-12-10T09:19:36.369Z</time>
      </trkpt>
      <trkpt lat="39.76471" lon="41.02875">
        <ele>2185.897464</ele>
        <time>2021-12-10T09:21:59.373Z</time>
      </trkpt>
      <trkpt lat="39.76382" lon="41.02656">
        <ele>2202.802199</ele>
        <time>2021-12-10T09:24:37.373Z</time>
      </trkpt>
      <trkpt lat="39.76266" lon="41.02448">
        <ele>2214.149403</ele>
        <time>2021-12-10T09:27:32.380Z</time>
      </trkpt>
      <trkpt lat="39.76093" lon="41.02357">
        <ele>2228.08206</ele>
        <time>2021-12-10T09:30:20.355Z</time>
      </trkpt>
      <trkpt lat="39.75891" lon="41.02347">
        <ele>2245.893188</ele>
        <time>2021-12-10T09:36:15.387Z</time>
      </trkpt>
      <trkpt lat="39.75713" lon="41.02257">
        <ele>2263.303724</ele>
        <time>2021-12-10T09:39:05.378Z</time>
      </trkpt>
      <trkpt lat="39.75571" lon="41.02079">
        <ele>2276.877256</ele>
        <time>2021-12-10T09:41:59.402Z</time>
      </trkpt>
      <trkpt lat="39.75446" lon="41.01892">
        <ele>2286.927932</ele>
        <time>2021-12-10T09:44:34.387Z</time>
      </trkpt>
      <trkpt lat="39.75345" lon="41.0167">
        <ele>2300.954449</ele>
        <time>2021-12-10T09:47:14.390Z</time>
      </trkpt>
      <trkpt lat="39.75244" lon="41.01463">
        <ele>2310.785694</ele>
        <time>2021-12-10T09:49:49.416Z</time>
      </trkpt>
      <trkpt lat="39.75072" lon="41.01328">
        <ele>2323.922433</ele>
        <time>2021-12-10T09:52:27.380Z</time>
      </trkpt>
      <trkpt lat="39.74897" lon="41.01198">
        <ele>2336.454011</ele>
        <time>2021-12-10T09:55:17.386Z</time>
      </trkpt>
      <trkpt lat="39.74713" lon="41.01141">
        <ele>2345.470272</ele>
        <time>2021-12-10T09:57:52.378Z</time>
      </trkpt>
      <trkpt lat="39.74515" lon="41.01092">
        <ele>2355.260484</ele>
        <time>2021-12-10T10:00:06.395Z</time>
      </trkpt>
      <trkpt lat="39.74338" lon="41.00971">
        <ele>2359.713958</ele>
        <time>2021-12-10T10:02:09.393Z</time>
      </trkpt>
      <trkpt lat="39.74131" lon="41.00934">
        <ele>2362.724704</ele>
        <time>2021-12-10T10:03:54.386Z</time>
      </trkpt>
      <trkpt lat="39.73938" lon="41.00895">
        <ele>2370.789302</ele>
        <time>2021-12-10T10:06:00.402Z</time>
      </trkpt>
      <trkpt lat="39.73802" lon="41.00698">
        <ele>2375.13724</ele>
        <time>2021-12-10T10:08:12.386Z</time>
      </trkpt>
      <trkpt lat="39.73745" lon="41.00411">
        <ele>2368.976262</ele>
        <time>2021-12-10T10:21:04.969Z</time>
      </trkpt>
      <trkpt lat="39.73673" lon="41.00038">
        <ele>2348.737828</ele>
        <time>2021-12-10T10:21:40.961Z</time>
      </trkpt>
      <trkpt lat="39.73652" lon="40.99765">
        <ele>2335.837059</ele>
        <time>2021-12-10T10:22:00.936Z</time>
      </trkpt>
      <trkpt lat="39.73639" lon="40.99482">
        <ele>2325.86177</ele>
        <time>2021-12-10T10:22:21.951Z</time>
      </trkpt>
      <trkpt lat="39.73627" lon="40.99207">
        <ele>2317.440161</ele>
        <time>2021-12-10T10:22:42.923Z</time>
      </trkpt>
      <trkpt lat="39.7361" lon="40.98913">
        <ele>2305.449562</ele>
        <time>2021-12-10T10:23:02.953Z</time>
      </trkpt>
      <trkpt lat="39.73568" lon="40.98644">
        <ele>2296.898265</ele>
        <time>2021-12-10T10:23:23.920Z</time>
      </trkpt>
      <trkpt lat="39.73482" lon="40.98241">
        <ele>2289.545479</ele>
        <time>2021-12-10T10:24:02.935Z</time>
      </trkpt>
      <trkpt lat="39.73264" lon="40.97881">
        <ele>2277.093987</ele>
        <time>2021-12-10T10:24:44.931Z</time>
      </trkpt>
      <trkpt lat="39.73059" lon="40.97735">
        <ele>2268.205167</ele>
        <time>2021-12-10T10:25:10.933Z</time>
      </trkpt>
      <trkpt lat="39.72776" lon="40.97675">
        <ele>2258.802436</ele>
        <time>2021-12-10T10:25:45.937Z</time>
      </trkpt>
      <trkpt lat="39.72483" lon="40.97766">
        <ele>2246.711075</ele>
        <time>2021-12-10T10:26:25.969Z</time>
      </trkpt>
      <trkpt lat="39.72254" lon="40.97823">
        <ele>2252.450532</ele>
        <time>2021-12-10T10:27:24.936Z</time>
      </trkpt>
      <trkpt lat="39.72056" lon="40.97813">
        <ele>2262.403209</ele>
        <time>2021-12-10T10:29:07.948Z</time>
      </trkpt>
      <trkpt lat="39.71855" lon="40.97785">
        <ele>2269.443108</ele>
        <time>2021-12-10T10:30:55.932Z</time>
      </trkpt>
      <trkpt lat="39.71677" lon="40.9766">
        <ele>2279.268084</ele>
        <time>2021-12-10T10:32:58.938Z</time>
      </trkpt>
      <trkpt lat="39.71515" lon="40.97526">
        <ele>2289.964651</ele>
        <time>2021-12-10T10:35:08.944Z</time>
      </trkpt>
      <trkpt lat="39.71312" lon="40.97481">
        <ele>2297.65265</ele>
        <time>2021-12-10T10:37:27.952Z</time>
      </trkpt>
      <trkpt lat="39.71131" lon="40.97552">
        <ele>2302.259616</ele>
        <time>2021-12-10T10:39:32.994Z</time>
      </trkpt>
      <trkpt lat="39.7094" lon="40.9767">
        <ele>2308.550779</ele>
        <time>2021-12-10T10:41:16.952Z</time>
      </trkpt>
      <trkpt lat="39.70746" lon="40.97791">
        <ele>2309.470602</ele>
        <time>2021-12-10T10:42:29.940Z</time>
      </trkpt>
      <trkpt lat="39.70548" lon="40.97917">
        <ele>2310.275351</ele>
        <time>2021-12-10T10:43:42.972Z</time>
      </trkpt>
      <trkpt lat="39.70355" lon="40.98041">
        <ele>2309.229783</ele>
        <time>2021-12-10T10:44:40.932Z</time>
      </trkpt>
      <trkpt lat="39.70052" lon="40.98229">
        <ele>2298.18109</ele>
        <time>2021-12-10T10:45:22.932Z</time>
      </trkpt>
      <trkpt lat="39.69886" lon="40.98334">
        <ele>2291.311457</ele>
        <time>2021-12-10T10:45:42.971Z</time>
      </trkpt>
      <trkpt lat="39.69634" lon="40.98492">
        <ele>2285.719189</ele>
        <time>2021-12-10T10:46:26.955Z</time>
      </trkpt>
      <trkpt lat="39.69453" lon="40.98627">
        <ele>2289.221408</ele>
        <time>2021-12-10T10:47:54.939Z</time>
      </trkpt>
      <trkpt lat="39.69387" lon="40.98874">
        <ele>2298.584212</ele>
        <time>2021-12-10T10:49:19.958Z</time>
      </trkpt>
      <trkpt lat="39.69376" lon="40.99184">
        <ele>2297.803277</ele>
        <time>2021-12-10T10:50:17.969Z</time>
      </trkpt>
      <trkpt lat="39.69334" lon="40.99453">
        <ele>2283.053407</ele>
        <time>2021-12-10T10:51:16.964Z</time>
      </trkpt>
      <trkpt lat="39.69068" lon="40.99692">
        <ele>2259.255461</ele>
        <time>2021-12-10T10:51:58.951Z</time>
      </trkpt>
      <trkpt lat="39.68878" lon="40.99834">
        <ele>2244.643168</ele>
        <time>2021-12-10T10:52:22.952Z</time>
      </trkpt>
      <trkpt lat="39.68671" lon="40.99986">
        <ele>2226.080715</ele>
        <time>2021-12-10T10:52:48.950Z</time>
      </trkpt>
      <trkpt lat="39.68457" lon="41.00141">
        <ele>2205.897599</ele>
        <time>2021-12-10T10:53:15.954Z</time>
      </trkpt>
      <trkpt lat="39.68289" lon="41.00266">
        <ele>2191.494883</ele>
        <time>2021-12-10T10:53:36.980Z</time>
      </trkpt>
      <trkpt lat="39.68121" lon="41.00389">
        <ele>2179.653545</ele>
        <time>2021-12-10T10:53:56.946Z</time>
      </trkpt>
      <trkpt lat="39.67924" lon="41.00537">
        <ele>2169.842784</ele>
        <time>2021-12-10T10:54:17.952Z</time>
      </trkpt>
      <trkpt lat="39.67694" lon="41.00707">
        <ele>2163.877325</ele>
        <time>2021-12-10T10:54:47.949Z</time>
      </trkpt>
      <trkpt lat="39.67446" lon="41.00866">
        <ele>2167.500976</ele>
        <time>2021-12-10T10:55:28.014Z</time>
      </trkpt>
      <trkpt lat="39.67199" lon="41.00878">
        <ele>2169.350279</ele>
        <time>2021-12-10T10:56:15.966Z</time>
      </trkpt>
      <trkpt lat="39.67" lon="41.00939">
        <ele>2172.318977</ele>
        <time>2021-12-10T10:57:29.938Z</time>
      </trkpt>
      <trkpt lat="39.66812" lon="41.01084">
        <ele>2170.212911</ele>
        <time>2021-12-10T10:58:57.952Z</time>
      </trkpt>
      <trkpt lat="39.66642" lon="41.0123">
        <ele>2175.784699</ele>
        <time>2021-12-10T11:00:17.950Z</time>
      </trkpt>
      <trkpt lat="39.66457" lon="41.0138">
        <ele>2180.28893</ele>
        <time>2021-12-10T11:01:41.969Z</time>
      </trkpt>
      <trkpt lat="39.66301" lon="41.01538">
        <ele>2185.273621</ele>
        <time>2021-12-10T11:03:05.967Z</time>
      </trkpt>
      <trkpt lat="39.66133" lon="41.01716">
        <ele>2188.417855</ele>
        <time>2021-12-10T11:04:13.937Z</time>
      </trkpt>
      <trkpt lat="39.65923" lon="41.01864">
        <ele>2178.567211</ele>
        <time>2021-12-10T11:04:53.945Z</time>
      </trkpt>
      <trkpt lat="39.65791" lon="41.01604">
        <ele>2156.517139</ele>
        <time>2021-12-10T11:05:21.945Z</time>
      </trkpt>
      <trkpt lat="39.65544" lon="41.01663">
        <ele>2129.137854</ele>
        <time>2021-12-10T11:06:03.941Z</time>
      </trkpt>
      <trkpt lat="39.65364" lon="41.01568">
        <ele>2118.140116</ele>
        <time>2021-12-10T11:06:27.947Z</time>
      </trkpt>
      <trkpt lat="39.65326" lon="41.01278">
        <ele>2124.118853</ele>
        <time>2021-12-10T11:07:39.975Z</time>
      </trkpt>
      <trkpt lat="39.65296" lon="41.0102">
        <ele>2130.071315</ele>
        <time>2021-12-10T11:09:03.968Z</time>
      </trkpt>
      <trkpt lat="39.65172" lon="41.00775">
        <ele>2123.094279</ele>
        <time>2021-12-10T11:10:04.948Z</time>
      </trkpt>
      <trkpt lat="39.64991" lon="41.00535">
        <ele>2114.359092</ele>
        <time>2021-12-10T11:10:44.949Z</time>
      </trkpt>
      <trkpt lat="39.64756" lon="41.00356">
        <ele>2105.669731</ele>
        <time>2021-12-10T11:11:19.944Z</time>
      </trkpt>
      <trkpt lat="39.64539" lon="41.00299">
        <ele>2100.618488</ele>
        <time>2021-12-10T11:11:44.954Z</time>
      </trkpt>
      <trkpt lat="39.6432" lon="41.00311">
        <ele>2096.575082</ele>
        <time>2021-12-10T11:12:26.969Z</time>
      </trkpt>
      <trkpt lat="39.64091" lon="41.00285">
        <ele>2087.635372</ele>
        <time>2021-12-10T11:12:51.950Z</time>
      </trkpt>
      <trkpt lat="39.63831" lon="41.00249">
        <ele>2079.462305</ele>
        <time>2021-12-10T11:13:21.957Z</time>
      </trkpt>
      <trkpt lat="39.63625" lon="41.00214">
        <ele>2073.682172</ele>
        <time>2021-12-10T11:13:44.958Z</time>
      </trkpt>
      <trkpt lat="39.63431" lon="41.00048">
        <ele>2068.891642</ele>
        <time>2021-12-10T11:14:24.967Z</time>
      </trkpt>
      <trkpt lat="39.63299" lon="40.99795">
        <ele>2067.587608</ele>
        <time>2021-12-10T11:15:26.950Z</time>
      </trkpt>
      <trkpt lat="39.63115" lon="40.99702">
        <ele>2072.538858</ele>
        <time>2021-12-10T11:16:30.020Z</time>
      </trkpt>
      <trkpt lat="39.62902" lon="40.99685">
        <ele>2064.795327</ele>
        <time>2021-12-10T11:17:11.967Z</time>
      </trkpt>
      <trkpt lat="39.62813" lon="40.99346">
        <ele>2039.210041</ele>
        <time>2021-12-10T11:17:51.976Z</time>
      </trkpt>
      <trkpt lat="39.62572" lon="40.99222">
        <ele>2012.493327</ele>
        <time>2021-12-10T11:18:33.952Z</time>
      </trkpt>
      <trkpt lat="39.62332" lon="40.99464">
        <ele>1988.444618</ele>
        <time>2021-12-10T11:19:13.973Z</time>
      </trkpt>
      <trkpt lat="39.62077" lon="40.99444">
        <ele>1980.72102</ele>
        <time>2021-12-10T11:19:47.939Z</time>
      </trkpt>
      <trkpt lat="39.61958" lon="40.99209">
        <ele>1978.981988</ele>
        <time>2021-12-10T11:22:53.970Z</time>
      </trkpt>
      <trkpt lat="39.61906" lon="40.98927">
        <ele>1976.037195</ele>
        <time>2021-12-10T11:23:55.987Z</time>
      </trkpt>
      <trkpt lat="39.61853" lon="40.98649">
        <ele>1972.605947</ele>
        <time>2021-12-10T11:24:58.980Z</time>
      </trkpt>
      <trkpt lat="39.61771" lon="40.98319">
        <ele>1958.77174</ele>
        <time>2021-12-10T11:25:37.941Z</time>
      </trkpt>
      <trkpt lat="39.61646" lon="40.97995">
        <ele>1943.746732</ele>
        <time>2021-12-10T11:26:19.956Z</time>
      </trkpt>
      <trkpt lat="39.61455" lon="40.97855">
        <ele>1944.545622</ele>
        <time>2021-12-10T11:27:07.941Z</time>
      </trkpt>
      <trkpt lat="39.61244" lon="40.97757">
        <ele>1959.413844</ele>
        <time>2021-12-10T11:28:24.973Z</time>
      </trkpt>
      <trkpt lat="39.61287" lon="40.97693">
        <ele>1959.413844</ele>
        <time>2021-12-10T11:31:04.518Z</time>
      </trkpt>
    </trkseg>
  </trk>
</gpx>